Lolani — WDF3586 — position and weather

sailwx.info

Track history (hours):
 
Tides and Currents Weather Stations Pressure Air Temp Water Temp Dewpoint Dewpoint Depression Visibility Wind Speed Wind Dir Waves Ship Positions

Lolani

Owner: Scripps, Edward W, Bellevue, WA. More information available from US FCC via Universal Licensing System and Coast Guard Vessel Documentation Center.

Last reported at 2017-Oct-10 19:48 UTC. Time now 2017-Nov-20 07:47 UTC.
Position N 48°47' W 123°22'.
Warning: this ship's position is 40 days out of date.

Type: Sailing vessel. MMSI: 316026565.

Date/timePositionNaut miles runAvg speedWind from/ knotsBaromVisibWave heightAir tempDewpointWater temp
2017-Oct-10 19:48N 48°47' W 123°22'3 8.4
2017-Oct-10 19:30N 48°49' W 123°24'1 0.8
2017-Oct-10 18:49N 48°49' W 123°23'0 0.0
2017-Oct-10 18:25N 48°49' W 123°23'0 0.0
2017-Oct-10 17:55N 48°49' W 123°23'0 0.0
2017-Oct-10 17:25N 48°49' W 123°23'0 0.0
2017-Oct-10 16:55N 48°49' W 123°23'0 0.0
2017-Oct-10 16:25N 48°49' W 123°23'0 0.0
2017-Oct-10 15:37N 48°49' W 123°23'0 0.0
2017-Oct-10 15:13N 48°49' W 123°23'0 0.0
2017-Oct-10 14:55N 48°49' W 123°23'0 0.0
2017-Oct-10 13:55N 48°49' W 123°23'0 0.0
2017-Oct-10 13:13N 48°49' W 123°23'0 0.0
2017-Oct-10 12:49N 48°49' W 123°23'0 0.0
2017-Oct-10 12:25N 48°49' W 123°23'0 0.0
2017-Oct-10 11:49N 48°49' W 123°23'0 0.0
2017-Oct-10 11:25N 48°49' W 123°23'0 0.0
2017-Oct-10 10:55N 48°49' W 123°23'0 0.0
2017-Oct-10 10:25N 48°49' W 123°23'0 0.0
2017-Oct-10 09:55N 48°49' W 123°23'0 0.0
2017-Oct-10 09:25N 48°49' W 123°23'0 0.0
2017-Oct-10 08:37N 48°49' W 123°23'0 0.0
2017-Oct-10 08:25N 48°49' W 123°23'0 0.0
2017-Oct-10 07:55N 48°49' W 123°23'0 0.0
2017-Oct-10 07:25N 48°49' W 123°23'0 0.0
2017-Oct-10 06:55N 48°49' W 123°23'0 0.0
2017-Oct-10 06:25N 48°49' W 123°23'0 0.0
2017-Oct-10 05:55N 48°49' W 123°23'0 0.0
2017-Oct-10 05:25N 48°49' W 123°23'0 0.0
2017-Oct-10 03:43N 48°49' W 123°23'0 0.0
2017-Oct-10 03:13N 48°49' W 123°23'0 0.0
2017-Oct-10 02:55N 48°49' W 123°23'0 0.0
2017-Oct-10 02:25N 48°49' W 123°23'0 0.0
2017-Oct-10 01:43N 48°49' W 123°23'0 0.0
2017-Oct-10 01:25N 48°49' W 123°23'0 0.0
2017-Oct-10 00:49N 48°49' W 123°23'0 0.0
2017-Oct-10 00:25N 48°49' W 123°23'0 0.0
2017-Oct-09 23:55N 48°49' W 123°23'0 0.0
2017-Oct-09 23:25N 48°49' W 123°23'0 0.0
2017-Oct-09 22:55N 48°49' W 123°23'0 0.0
2017-Oct-09 22:25N 48°49' W 123°23'0 0.0
2017-Oct-09 21:49N 48°49' W 123°23'0 1.0
2017-Oct-09 21:30N 48°49' W 123°24'10 7.9
2017-Oct-09 20:13N 48°56' W 123°35'2 5.5
2017-Oct-09 19:47N 48°55' W 123°38'  
2017-Oct-06 16:24N 48°59' W 123°39'0 0.0
2017-Oct-06 13:15N 48°59' W 123°39'0 0.0
2017-Oct-06 13:00N 48°59' W 123°39'0 0.0
2017-Oct-06 12:15N 48°59' W 123°39'0 0.0
2017-Oct-06 11:24N 48°59' W 123°39'0 0.0
2017-Oct-06 11:00N 48°59' W 123°39'0 0.0
2017-Oct-06 10:30N 48°59' W 123°39'0 0.0
2017-Oct-06 10:00N 48°59' W 123°39'0 0.0
2017-Oct-06 09:30N 48°59' W 123°39'0 0.0
2017-Oct-06 08:54N 48°59' W 123°39'0 0.0
2017-Oct-06 08:30N 48°59' W 123°39'0 0.0
2017-Oct-06 08:00N 48°59' W 123°39'0 0.0
2017-Oct-06 06:27N 48°59' W 123°39'0 0.0
2017-Oct-06 06:00N 48°59' W 123°39'0 0.0
2017-Oct-06 05:21N 48°59' W 123°39'0 0.0
2017-Oct-06 04:57N 48°59' W 123°39'0 0.0
2017-Oct-06 04:30N 48°59' W 123°39'0 0.0
2017-Oct-05 22:31N 48°59' W 123°39'0 7.5
2017-Oct-05 22:29N 48°59' W 123°38'5 7.2
2017-Oct-05 21:49N 48°55' W 123°36'3 7.4
2017-Oct-05 21:29N 48°52' W 123°35'  
2017-Oct-03 13:54N 48°40' W 123°24'0 0.0
2017-Oct-03 08:43N 48°40' W 123°24'0 0.0
2017-Oct-02 10:42N 48°40' W 123°24'0 0.0
2017-Oct-02 00:33N 48°40' W 123°24'  
Track history (hours):
 
Tides and Currents Weather Stations Pressure Air Temp Water Temp Dewpoint Dewpoint Depression Visibility Wind Speed Wind Dir Waves Ship Positions

Lolani

Owner: Scripps, Edward W, Bellevue, WA. More information available from US FCC via Universal Licensing System and Coast Guard Vessel Documentation Center.

Last reported at 2017-Oct-10 19:48 UTC. Time now 2017-Nov-20 07:47 UTC.
Position N 48°47' W 123°22'.
Warning: this ship's position is 40 days out of date.

Type: Sailing vessel. MMSI: 316026565.

Date/timePositionNaut miles runAvg speedWind from/ knotsBaromVisibWave heightAir tempDewpointWater temp
2017-Oct-10 19:48N 48°47' W 123°22'3 8.4
2017-Oct-10 19:30N 48°49' W 123°24'1 0.8
2017-Oct-10 18:49N 48°49' W 123°23'0 0.0
2017-Oct-10 18:25N 48°49' W 123°23'0 0.0
2017-Oct-10 17:55N 48°49' W 123°23'0 0.0
2017-Oct-10 17:25N 48°49' W 123°23'0 0.0
2017-Oct-10 16:55N 48°49' W 123°23'0 0.0
2017-Oct-10 16:25N 48°49' W 123°23'0 0.0
2017-Oct-10 15:37N 48°49' W 123°23'0 0.0
2017-Oct-10 15:13N 48°49' W 123°23'0 0.0
2017-Oct-10 14:55N 48°49' W 123°23'0 0.0
2017-Oct-10 13:55N 48°49' W 123°23'0 0.0
2017-Oct-10 13:13N 48°49' W 123°23'0 0.0
2017-Oct-10 12:49N 48°49' W 123°23'0 0.0
2017-Oct-10 12:25N 48°49' W 123°23'0 0.0
2017-Oct-10 11:49N 48°49' W 123°23'0 0.0
2017-Oct-10 11:25N 48°49' W 123°23'0 0.0
2017-Oct-10 10:55N 48°49' W 123°23'0 0.0
2017-Oct-10 10:25N 48°49' W 123°23'0 0.0
2017-Oct-10 09:55N 48°49' W 123°23'0 0.0
2017-Oct-10 09:25N 48°49' W 123°23'0 0.0
2017-Oct-10 08:37N 48°49' W 123°23'0 0.0
2017-Oct-10 08:25N 48°49' W 123°23'0 0.0
2017-Oct-10 07:55N 48°49' W 123°23'0 0.0
2017-Oct-10 07:25N 48°49' W 123°23'0 0.0
2017-Oct-10 06:55N 48°49' W 123°23'0 0.0
2017-Oct-10 06:25N 48°49' W 123°23'0 0.0
2017-Oct-10 05:55N 48°49' W 123°23'0 0.0
2017-Oct-10 05:25N 48°49' W 123°23'0 0.0
2017-Oct-10 03:43N 48°49' W 123°23'0 0.0
2017-Oct-10 03:13N 48°49' W 123°23'0 0.0
2017-Oct-10 02:55N 48°49' W 123°23'0 0.0
2017-Oct-10 02:25N 48°49' W 123°23'0 0.0
2017-Oct-10 01:43N 48°49' W 123°23'0 0.0
2017-Oct-10 01:25N 48°49' W 123°23'0 0.0
2017-Oct-10 00:49N 48°49' W 123°23'0 0.0
2017-Oct-10 00:25N 48°49' W 123°23'0 0.0
2017-Oct-09 23:55N 48°49' W 123°23'0 0.0
2017-Oct-09 23:25N 48°49' W 123°23'0 0.0
2017-Oct-09 22:55N 48°49' W 123°23'0 0.0
2017-Oct-09 22:25N 48°49' W 123°23'0 0.0
2017-Oct-09 21:49N 48°49' W 123°23'0 1.0
2017-Oct-09 21:30N 48°49' W 123°24'10 7.9
2017-Oct-09 20:13N 48°56' W 123°35'2 5.5
2017-Oct-09 19:47N 48°55' W 123°38'  
2017-Oct-06 16:24N 48°59' W 123°39'0 0.0
2017-Oct-06 13:15N 48°59' W 123°39'0 0.0
2017-Oct-06 13:00N 48°59' W 123°39'0 0.0
2017-Oct-06 12:15N 48°59' W 123°39'0 0.0
2017-Oct-06 11:24N 48°59' W 123°39'0 0.0
2017-Oct-06 11:00N 48°59' W 123°39'0 0.0
2017-Oct-06 10:30N 48°59' W 123°39'0 0.0
2017-Oct-06 10:00N 48°59' W 123°39'0 0.0
2017-Oct-06 09:30N 48°59' W 123°39'0 0.0
2017-Oct-06 08:54N 48°59' W 123°39'0 0.0
2017-Oct-06 08:30N 48°59' W 123°39'0 0.0
2017-Oct-06 08:00N 48°59' W 123°39'0 0.0
2017-Oct-06 06:27N 48°59' W 123°39'0 0.0
2017-Oct-06 06:00N 48°59' W 123°39'0 0.0
2017-Oct-06 05:21N 48°59' W 123°39'0 0.0
2017-Oct-06 04:57N 48°59' W 123°39'0 0.0
2017-Oct-06 04:30N 48°59' W 123°39'0 0.0
2017-Oct-05 22:31N 48°59' W 123°39'0 7.5
2017-Oct-05 22:29N 48°59' W 123°38'5 7.2
2017-Oct-05 21:49N 48°55' W 123°36'3 7.4
2017-Oct-05 21:29N 48°52' W 123°35'  
2017-Oct-03 13:54N 48°40' W 123°24'0 0.0
2017-Oct-03 08:43N 48°40' W 123°24'0 0.0
2017-Oct-02 10:42N 48°40' W 123°24'0 0.0
2017-Oct-02 00:33N 48°40' W 123°24'  

Dump ship's entire track history